sensor_id;sensor_type;location;lat;lon;timestamp;P1;durP1;ratioP1;P2;durP2;ratioP2
20478;SDS011;10398;52.490;13.434;2024-01-10T00:01:44;52.30;;;18.50;;
20478;SDS011;10398;52.490;13.434;2024-01-10T00:04:09;66.03;;;18.77;;
20478;SDS011;10398;52.490;13.434;2024-01-10T00:06:35;52.53;;;19.00;;
20478;SDS011;10398;52.490;13.434;2024-01-10T00:09:01;62.43;;;20.17;;
20478;SDS011;10398;52.490;13.434;2024-01-10T00:11:27;61.10;;;20.07;;
20478;SDS011;10398;52.490;13.434;2024-01-10T00:13:53;60.33;;;18.80;;
20478;SDS011;10398;52.490;13.434;2024-01-10T00:16:24;58.33;;;20.17;;
20478;SDS011;10398;52.490;13.434;2024-01-10T00:18:50;60.70;;;19.43;;
20478;SDS011;10398;52.490;13.434;2024-01-10T00:21:16;59.03;;;18.37;;
20478;SDS011;10398;52.490;13.434;2024-01-10T00:23:42;64.00;;;19.63;;
20478;SDS011;10398;52.490;13.434;2024-01-10T00:26:07;60.07;;;19.50;;
20478;SDS011;10398;52.490;13.434;2024-01-10T00:28:33;64.60;;;19.90;;
20478;SDS011;10398;52.490;13.434;2024-01-10T00:30:58;59.27;;;19.50;;
20478;SDS011;10398;52.490;13.434;2024-01-10T00:33:24;59.40;;;18.43;;
20478;SDS011;10398;52.490;13.434;2024-01-10T00:35:50;62.33;;;19.80;;
20478;SDS011;10398;52.490;13.434;2024-01-10T00:38:15;67.57;;;20.60;;
20478;SDS011;10398;52.490;13.434;2024-01-10T00:40:41;52.80;;;18.23;;
20478;SDS011;10398;52.490;13.434;2024-01-10T00:43:07;62.97;;;20.10;;
20478;SDS011;10398;52.490;13.434;2024-01-10T00:45:32;55.00;;;18.77;;
20478;SDS011;10398;52.490;13.434;2024-01-10T00:47:58;55.33;;;19.57;;
20478;SDS011;10398;52.490;13.434;2024-01-10T00:50:24;56.53;;;19.70;;
20478;SDS011;10398;52.490;13.434;2024-01-10T00:52:50;64.17;;;20.80;;
20478;SDS011;10398;52.490;13.434;2024-01-10T00:55:15;68.57;;;20.60;;
20478;SDS011;10398;52.490;13.434;2024-01-10T00:57:41;53.47;;;19.40;;
20478;SDS011;10398;52.490;13.434;2024-01-10T01:00:07;60.40;;;20.90;;
20478;SDS011;10398;52.490;13.434;2024-01-10T01:02:34;75.20;;;21.60;;
20478;SDS011;10398;52.490;13.434;2024-01-10T01:05:00;71.07;;;21.23;;
20478;SDS011;10398;52.490;13.434;2024-01-10T01:07:27;63.03;;;20.27;;
20478;SDS011;10398;52.490;13.434;2024-01-10T01:09:53;57.93;;;19.93;;
20478;SDS011;10398;52.490;13.434;2024-01-10T01:12:18;63.07;;;20.57;;
20478;SDS011;10398;52.490;13.434;2024-01-10T01:14:44;58.17;;;20.50;;
20478;SDS011;10398;52.490;13.434;2024-01-10T01:17:10;64.03;;;20.23;;
20478;SDS011;10398;52.490;13.434;2024-01-10T01:19:35;67.43;;;20.93;;
20478;SDS011;10398;52.490;13.434;2024-01-10T01:22:01;55.50;;;20.40;;
20478;SDS011;10398;52.490;13.434;2024-01-10T01:24:27;60.17;;;19.90;;
20478;SDS011;10398;52.490;13.434;2024-01-10T01:26:52;65.37;;;21.23;;
20478;SDS011;10398;52.490;13.434;2024-01-10T01:29:18;63.80;;;20.03;;
20478;SDS011;10398;52.490;13.434;2024-01-10T01:31:45;38.03;;;10.27;;
20478;SDS011;10398;52.490;13.434;2024-01-10T01:34:10;67.13;;;20.43;;
20478;SDS011;10398;52.490;13.434;2024-01-10T01:36:36;63.83;;;21.67;;
20478;SDS011;10398;52.490;13.434;2024-01-10T01:39:02;21.70;;;7.63;;
20478;SDS011;10398;52.490;13.434;2024-01-10T01:41:28;18.63;;;8.40;;
20478;SDS011;10398;52.490;13.434;2024-01-10T01:43:54;17.83;;;9.70;;
20478;SDS011;10398;52.490;13.434;2024-01-10T01:46:20;20.17;;;8.53;;
20478;SDS011;10398;52.490;13.434;2024-01-10T01:48:46;16.53;;;9.03;;
20478;SDS011;10398;52.490;13.434;2024-01-10T01:51:12;24.37;;;7.57;;
20478;SDS011;10398;52.490;13.434;2024-01-10T01:53:39;50.43;;;19.13;;
20478;SDS011;10398;52.490;13.434;2024-01-10T01:56:06;60.50;;;20.53;;
20478;SDS011;10398;52.490;13.434;2024-01-10T01:58:32;61.67;;;20.40;;
20478;SDS011;10398;52.490;13.434;2024-01-10T02:00:59;51.23;;;18.53;;
20478;SDS011;10398;52.490;13.434;2024-01-10T02:03:27;59.07;;;19.80;;
20478;SDS011;10398;52.490;13.434;2024-01-10T02:05:52;63.57;;;20.37;;
20478;SDS011;10398;52.490;13.434;2024-01-10T02:08:19;66.77;;;21.37;;
20478;SDS011;10398;52.490;13.434;2024-01-10T02:10:45;54.83;;;20.07;;
20478;SDS011;10398;52.490;13.434;2024-01-10T02:13:11;59.07;;;19.53;;
20478;SDS011;10398;52.490;13.434;2024-01-10T02:15:37;57.63;;;19.20;;
20478;SDS011;10398;52.490;13.434;2024-01-10T02:18:03;65.90;;;20.30;;
20478;SDS011;10398;52.490;13.434;2024-01-10T02:20:30;71.73;;;20.73;;
20478;SDS011;10398;52.490;13.434;2024-01-10T02:22:56;59.23;;;20.07;;
20478;SDS011;10398;52.490;13.434;2024-01-10T02:25:22;60.07;;;20.77;;
20478;SDS011;10398;52.490;13.434;2024-01-10T02:27:48;62.40;;;20.20;;
20478;SDS011;10398;52.490;13.434;2024-01-10T02:30:13;65.60;;;21.10;;
20478;SDS011;10398;52.490;13.434;2024-01-10T02:32:39;71.77;;;22.03;;
20478;SDS011;10398;52.490;13.434;2024-01-10T02:35:05;62.73;;;21.30;;
20478;SDS011;10398;52.490;13.434;2024-01-10T02:37:31;61.63;;;19.80;;
20478;SDS011;10398;52.490;13.434;2024-01-10T02:39:57;60.10;;;19.63;;
20478;SDS011;10398;52.490;13.434;2024-01-10T02:42:23;61.67;;;19.83;;
20478;SDS011;10398;52.490;13.434;2024-01-10T02:44:48;62.23;;;19.43;;
20478;SDS011;10398;52.490;13.434;2024-01-10T02:47:14;55.50;;;20.07;;
20478;SDS011;10398;52.490;13.434;2024-01-10T02:49:40;64.67;;;21.20;;
20478;SDS011;10398;52.490;13.434;2024-01-10T02:52:06;59.30;;;20.70;;
20478;SDS011;10398;52.490;13.434;2024-01-10T02:54:31;68.83;;;22.33;;
20478;SDS011;10398;52.490;13.434;2024-01-10T02:56:57;65.27;;;20.00;;
20478;SDS011;10398;52.490;13.434;2024-01-10T02:59:23;61.10;;;20.37;;
20478;SDS011;10398;52.490;13.434;2024-01-10T03:01:48;66.73;;;20.87;;
20478;SDS011;10398;52.490;13.434;2024-01-10T03:04:14;58.10;;;19.63;;
20478;SDS011;10398;52.490;13.434;2024-01-10T03:06:39;58.40;;;19.37;;
20478;SDS011;10398;52.490;13.434;2024-01-10T03:09:05;60.00;;;19.90;;
20478;SDS011;10398;52.490;13.434;2024-01-10T03:11:31;65.83;;;22.57;;
20478;SDS011;10398;52.490;13.434;2024-01-10T03:14:03;57.33;;;20.37;;
20478;SDS011;10398;52.490;13.434;2024-01-10T03:16:33;58.70;;;20.80;;
20478;SDS011;10398;52.490;13.434;2024-01-10T03:18:59;30.77;;;8.40;;
20478;SDS011;10398;52.490;13.434;2024-01-10T03:21:25;25.63;;;7.67;;
20478;SDS011;10398;52.490;13.434;2024-01-10T03:23:52;25.23;;;9.17;;
20478;SDS011;10398;52.490;13.434;2024-01-10T03:26:21;30.73;;;6.53;;
20478;SDS011;10398;52.490;13.434;2024-01-10T03:28:47;15.57;;;7.37;;
20478;SDS011;10398;52.490;13.434;2024-01-10T03:31:13;19.73;;;8.03;;
20478;SDS011;10398;52.490;13.434;2024-01-10T03:33:39;21.97;;;8.20;;
20478;SDS011;10398;52.490;13.434;2024-01-10T03:36:06;21.13;;;8.60;;
20478;SDS011;10398;52.490;13.434;2024-01-10T03:38:34;55.83;;;20.03;;
20478;SDS011;10398;52.490;13.434;2024-01-10T03:40:59;63.43;;;20.87;;
20478;SDS011;10398;52.490;13.434;2024-01-10T03:43:25;64.20;;;20.97;;
20478;SDS011;10398;52.490;13.434;2024-01-10T03:45:50;59.50;;;19.93;;
20478;SDS011;10398;52.490;13.434;2024-01-10T03:48:16;60.90;;;20.50;;
20478;SDS011;10398;52.490;13.434;2024-01-10T03:50:41;63.47;;;21.43;;
20478;SDS011;10398;52.490;13.434;2024-01-10T03:53:07;64.37;;;20.17;;
20478;SDS011;10398;52.490;13.434;2024-01-10T03:55:33;66.20;;;20.20;;
20478;SDS011;10398;52.490;13.434;2024-01-10T03:57:58;68.60;;;21.17;;
20478;SDS011;10398;52.490;13.434;2024-01-10T04:00:24;61.97;;;20.33;;
20478;SDS011;10398;52.490;13.434;2024-01-10T04:02:50;56.17;;;19.53;;
20478;SDS011;10398;52.490;13.434;2024-01-10T04:05:16;60.07;;;20.77;;
20478;SDS011;10398;52.490;13.434;2024-01-10T04:07:42;69.27;;;21.37;;
20478;SDS011;10398;52.490;13.434;2024-01-10T04:10:11;59.57;;;21.90;;
20478;SDS011;10398;52.490;13.434;2024-01-10T04:12:42;68.50;;;21.23;;
20478;SDS011;10398;52.490;13.434;2024-01-10T04:15:08;60.73;;;21.23;;
20478;SDS011;10398;52.490;13.434;2024-01-10T04:17:34;70.07;;;21.97;;
20478;SDS011;10398;52.490;13.434;2024-01-10T04:20:00;65.03;;;20.30;;
20478;SDS011;10398;52.490;13.434;2024-01-10T04:22:26;61.07;;;19.77;;
20478;SDS011;10398;52.490;13.434;2024-01-10T04:24:52;65.20;;;20.60;;
20478;SDS011;10398;52.490;13.434;2024-01-10T04:27:18;70.33;;;21.97;;
20478;SDS011;10398;52.490;13.434;2024-01-10T04:29:44;55.83;;;20.47;;
20478;SDS011;10398;52.490;13.434;2024-01-10T04:32:09;62.33;;;19.13;;
20478;SDS011;10398;52.490;13.434;2024-01-10T04:34:35;61.53;;;20.77;;
20478;SDS011;10398;52.490;13.434;2024-01-10T04:37:01;67.37;;;22.07;;
20478;SDS011;10398;52.490;13.434;2024-01-10T04:39:27;56.00;;;20.00;;
20478;SDS011;10398;52.490;13.434;2024-01-10T04:41:52;64.53;;;19.47;;
20478;SDS011;10398;52.490;13.434;2024-01-10T04:44:18;64.00;;;19.93;;
20478;SDS011;10398;52.490;13.434;2024-01-10T04:46:44;62.50;;;20.13;;
20478;SDS011;10398;52.490;13.434;2024-01-10T04:49:09;60.67;;;20.43;;
20478;SDS011;10398;52.490;13.434;2024-01-10T04:51:35;59.40;;;20.77;;
20478;SDS011;10398;52.490;13.434;2024-01-10T04:54:01;65.10;;;20.67;;
20478;SDS011;10398;52.490;13.434;2024-01-10T04:56:26;51.97;;;19.07;;
20478;SDS011;10398;52.490;13.434;2024-01-10T04:58:52;61.70;;;20.17;;
20478;SDS011;10398;52.490;13.434;2024-01-10T05:01:18;61.67;;;19.33;;
20478;SDS011;10398;52.490;13.434;2024-01-10T05:03:44;58.50;;;20.40;;
20478;SDS011;10398;52.490;13.434;2024-01-10T05:08:41;57.87;;;20.17;;
20478;SDS011;10398;52.490;13.434;2024-01-10T05:11:06;60.57;;;19.40;;
20478;SDS011;10398;52.490;13.434;2024-01-10T05:13:32;69.00;;;20.87;;
20478;SDS011;10398;52.490;13.434;2024-01-10T05:15:57;58.60;;;20.63;;
20478;SDS011;10398;52.490;13.434;2024-01-10T05:18:23;57.37;;;19.67;;
20478;SDS011;10398;52.490;13.434;2024-01-10T05:20:48;60.47;;;20.90;;
20478;SDS011;10398;52.490;13.434;2024-01-10T05:23:15;58.83;;;20.20;;
20478;SDS011;10398;52.490;13.434;2024-01-10T05:25:40;55.87;;;19.23;;
20478;SDS011;10398;52.490;13.434;2024-01-10T05:28:06;58.40;;;20.97;;
20478;SDS011;10398;52.490;13.434;2024-01-10T05:30:32;63.43;;;20.27;;
20478;SDS011;10398;52.490;13.434;2024-01-10T05:32:57;62.17;;;20.63;;
20478;SDS011;10398;52.490;13.434;2024-01-10T05:35:26;66.47;;;22.00;;
20478;SDS011;10398;52.490;13.434;2024-01-10T05:37:52;63.00;;;20.60;;
20478;SDS011;10398;52.490;13.434;2024-01-10T05:40:18;28.27;;;10.77;;
20478;SDS011;10398;52.490;13.434;2024-01-10T05:42:44;61.27;;;20.50;;
20478;SDS011;10398;52.490;13.434;2024-01-10T05:45:09;62.90;;;20.53;;
20478;SDS011;10398;52.490;13.434;2024-01-10T05:47:35;60.90;;;20.93;;
20478;SDS011;10398;52.490;13.434;2024-01-10T05:50:02;64.23;;;20.90;;
20478;SDS011;10398;52.490;13.434;2024-01-10T05:52:31;71.03;;;21.17;;
20478;SDS011;10398;52.490;13.434;2024-01-10T05:54:58;65.90;;;22.27;;
20478;SDS011;10398;52.490;13.434;2024-01-10T05:57:24;64.70;;;20.93;;
20478;SDS011;10398;52.490;13.434;2024-01-10T05:59:49;62.90;;;20.37;;
20478;SDS011;10398;52.490;13.434;2024-01-10T06:02:17;66.77;;;19.97;;
20478;SDS011;10398;52.490;13.434;2024-01-10T06:04:43;56.00;;;20.57;;
20478;SDS011;10398;52.490;13.434;2024-01-10T06:07:09;62.77;;;19.83;;
20478;SDS011;10398;52.490;13.434;2024-01-10T06:09:34;59.30;;;20.43;;
20478;SDS011;10398;52.490;13.434;2024-01-10T06:12:00;69.37;;;21.47;;
20478;SDS011;10398;52.490;13.434;2024-01-10T06:14:26;63.93;;;21.40;;
20478;SDS011;10398;52.490;13.434;2024-01-10T06:16:51;64.87;;;22.07;;
20478;SDS011;10398;52.490;13.434;2024-01-10T06:19:17;72.53;;;21.40;;
20478;SDS011;10398;52.490;13.434;2024-01-10T06:21:43;70.07;;;22.07;;
20478;SDS011;10398;52.490;13.434;2024-01-10T06:24:09;64.27;;;23.57;;
20478;SDS011;10398;52.490;13.434;2024-01-10T06:26:34;76.77;;;23.63;;
20478;SDS011;10398;52.490;13.434;2024-01-10T06:29:00;66.33;;;21.63;;
20478;SDS011;10398;52.490;13.434;2024-01-10T06:31:26;72.57;;;24.40;;
20478;SDS011;10398;52.490;13.434;2024-01-10T06:33:51;71.17;;;21.83;;
20478;SDS011;10398;52.490;13.434;2024-01-10T06:36:17;64.00;;;21.00;;
20478;SDS011;10398;52.490;13.434;2024-01-10T06:38:42;70.80;;;22.50;;
20478;SDS011;10398;52.490;13.434;2024-01-10T06:41:08;73.73;;;23.60;;
20478;SDS011;10398;52.490;13.434;2024-01-10T06:43:35;63.00;;;22.03;;
20478;SDS011;10398;52.490;13.434;2024-01-10T06:46:01;71.33;;;22.50;;
20478;SDS011;10398;52.490;13.434;2024-01-10T06:48:28;61.50;;;21.60;;
20478;SDS011;10398;52.490;13.434;2024-01-10T06:50:54;63.63;;;21.53;;
20478;SDS011;10398;52.490;13.434;2024-01-10T06:53:20;63.33;;;21.37;;
20478;SDS011;10398;52.490;13.434;2024-01-10T06:55:46;67.87;;;21.10;;
20478;SDS011;10398;52.490;13.434;2024-01-10T06:58:12;66.73;;;20.00;;
20478;SDS011;10398;52.490;13.434;2024-01-10T07:00:38;63.57;;;20.80;;
20478;SDS011;10398;52.490;13.434;2024-01-10T07:03:03;66.47;;;21.80;;
20478;SDS011;10398;52.490;13.434;2024-01-10T07:05:29;72.07;;;20.53;;
20478;SDS011;10398;52.490;13.434;2024-01-10T07:07:57;71.30;;;21.47;;
20478;SDS011;10398;52.490;13.434;2024-01-10T07:10:23;59.60;;;18.93;;
20478;SDS011;10398;52.490;13.434;2024-01-10T07:12:52;58.50;;;20.63;;
20478;SDS011;10398;52.490;13.434;2024-01-10T07:15:19;66.13;;;21.17;;
20478;SDS011;10398;52.490;13.434;2024-01-10T07:17:45;61.40;;;21.30;;
20478;SDS011;10398;52.490;13.434;2024-01-10T07:20:10;64.67;;;19.93;;
20478;SDS011;10398;52.490;13.434;2024-01-10T07:22:37;67.53;;;21.43;;
20478;SDS011;10398;52.490;13.434;2024-01-10T07:25:08;65.37;;;20.47;;
20478;SDS011;10398;52.490;13.434;2024-01-10T07:27:42;61.60;;;20.23;;
20478;SDS011;10398;52.490;13.434;2024-01-10T07:30:09;69.80;;;20.73;;
20478;SDS011;10398;52.490;13.434;2024-01-10T07:32:43;64.93;;;21.37;;
20478;SDS011;10398;52.490;13.434;2024-01-10T07:35:10;67.37;;;20.87;;
20478;SDS011;10398;52.490;13.434;2024-01-10T07:37:39;63.47;;;21.43;;
20478;SDS011;10398;52.490;13.434;2024-01-10T07:40:07;69.37;;;21.67;;
20478;SDS011;10398;52.490;13.434;2024-01-10T07:42:34;68.87;;;22.87;;
20478;SDS011;10398;52.490;13.434;2024-01-10T07:45:00;77.50;;;22.77;;
20478;SDS011;10398;52.490;13.434;2024-01-10T07:47:32;78.77;;;21.93;;
20478;SDS011;10398;52.490;13.434;2024-01-10T07:50:05;69.57;;;23.10;;
20478;SDS011;10398;52.490;13.434;2024-01-10T07:52:32;68.00;;;21.53;;
20478;SDS011;10398;52.490;13.434;2024-01-10T07:54:58;62.87;;;20.97;;
20478;SDS011;10398;52.490;13.434;2024-01-10T07:57:23;69.03;;;22.73;;
20478;SDS011;10398;52.490;13.434;2024-01-10T07:59:49;69.47;;;22.97;;
20478;SDS011;10398;52.490;13.434;2024-01-10T08:02:15;72.30;;;23.33;;
20478;SDS011;10398;52.490;13.434;2024-01-10T08:04:41;66.30;;;21.93;;
20478;SDS011;10398;52.490;13.434;2024-01-10T08:07:07;70.43;;;22.83;;
20478;SDS011;10398;52.490;13.434;2024-01-10T08:09:33;73.10;;;24.27;;
20478;SDS011;10398;52.490;13.434;2024-01-10T08:11:59;64.23;;;22.47;;
20478;SDS011;10398;52.490;13.434;2024-01-10T08:14:25;73.43;;;23.67;;
20478;SDS011;10398;52.490;13.434;2024-01-10T08:16:50;29.80;;;8.63;;
20478;SDS011;10398;52.490;13.434;2024-01-10T08:19:18;33.23;;;12.87;;
20478;SDS011;10398;52.490;13.434;2024-01-10T08:21:43;38.10;;;9.77;;
20478;SDS011;10398;52.490;13.434;2024-01-10T08:24:09;30.70;;;11.33;;
20478;SDS011;10398;52.490;13.434;2024-01-10T08:26:35;32.13;;;9.67;;
20478;SDS011;10398;52.490;13.434;2024-01-10T08:29:02;22.40;;;10.27;;
20478;SDS011;10398;52.490;13.434;2024-01-10T08:31:28;24.07;;;9.77;;
20478;SDS011;10398;52.490;13.434;2024-01-10T08:33:54;45.43;;;13.57;;
20478;SDS011;10398;52.490;13.434;2024-01-10T08:36:21;25.83;;;10.67;;
20478;SDS011;10398;52.490;13.434;2024-01-10T08:38:49;32.33;;;9.10;;
20478;SDS011;10398;52.490;13.434;2024-01-10T08:41:18;32.90;;;12.80;;
20478;SDS011;10398;52.490;13.434;2024-01-10T08:43:45;39.13;;;11.50;;
20478;SDS011;10398;52.490;13.434;2024-01-10T08:46:13;30.03;;;11.83;;
20478;SDS011;10398;52.490;13.434;2024-01-10T08:48:39;35.40;;;10.33;;
20478;SDS011;10398;52.490;13.434;2024-01-10T08:51:05;23.80;;;10.87;;
20478;SDS011;10398;52.490;13.434;2024-01-10T08:53:30;58.43;;;10.40;;
20478;SDS011;10398;52.490;13.434;2024-01-10T08:55:57;33.50;;;10.47;;
20478;SDS011;10398;52.490;13.434;2024-01-10T08:58:23;30.77;;;11.33;;
20478;SDS011;10398;52.490;13.434;2024-01-10T09:00:48;22.73;;;11.23;;
20478;SDS011;10398;52.490;13.434;2024-01-10T09:03:14;28.70;;;10.73;;
20478;SDS011;10398;52.490;13.434;2024-01-10T09:05:40;29.80;;;11.63;;
20478;SDS011;10398;52.490;13.434;2024-01-10T09:08:06;35.70;;;13.13;;
20478;SDS011;10398;52.490;13.434;2024-01-10T09:10:31;34.13;;;11.60;;
20478;SDS011;10398;52.490;13.434;2024-01-10T09:12:58;30.10;;;13.10;;
20478;SDS011;10398;52.490;13.434;2024-01-10T09:15:23;43.33;;;12.90;;
20478;SDS011;10398;52.490;13.434;2024-01-10T09:17:50;34.87;;;10.47;;
20478;SDS011;10398;52.490;13.434;2024-01-10T09:20:17;48.23;;;14.93;;
20478;SDS011;10398;52.490;13.434;2024-01-10T09:22:42;33.87;;;12.63;;
20478;SDS011;10398;52.490;13.434;2024-01-10T09:25:09;36.20;;;13.13;;
20478;SDS011;10398;52.490;13.434;2024-01-10T09:27:37;41.73;;;14.53;;
20478;SDS011;10398;52.490;13.434;2024-01-10T09:30:06;38.60;;;14.33;;
20478;SDS011;10398;52.490;13.434;2024-01-10T09:32:35;40.10;;;14.67;;
20478;SDS011;10398;52.490;13.434;2024-01-10T09:35:01;44.43;;;13.47;;
20478;SDS011;10398;52.490;13.434;2024-01-10T09:37:27;31.00;;;11.87;;
20478;SDS011;10398;52.490;13.434;2024-01-10T09:39:53;38.20;;;12.93;;
20478;SDS011;10398;52.490;13.434;2024-01-10T09:42:19;32.27;;;13.33;;
20478;SDS011;10398;52.490;13.434;2024-01-10T09:44:50;36.87;;;13.53;;
20478;SDS011;10398;52.490;13.434;2024-01-10T09:47:16;33.37;;;12.13;;
20478;SDS011;10398;52.490;13.434;2024-01-10T09:49:44;34.80;;;12.97;;
20478;SDS011;10398;52.490;13.434;2024-01-10T09:52:11;39.97;;;13.17;;
20478;SDS011;10398;52.490;13.434;2024-01-10T09:55:00;27.00;;;10.60;;
20478;SDS011;10398;52.490;13.434;2024-01-10T09:57:26;31.10;;;12.90;;
20478;SDS011;10398;52.490;13.434;2024-01-10T09:59:52;34.37;;;12.27;;
20478;SDS011;10398;52.490;13.434;2024-01-10T10:02:19;29.10;;;12.07;;
20478;SDS011;10398;52.490;13.434;2024-01-10T10:04:54;37.63;;;11.37;;
20478;SDS011;10398;52.490;13.434;2024-01-10T10:07:26;32.97;;;11.27;;
20478;SDS011;10398;52.490;13.434;2024-01-10T10:09:51;36.40;;;11.57;;
20478;SDS011;10398;52.490;13.434;2024-01-10T10:12:18;40.50;;;13.77;;
20478;SDS011;10398;52.490;13.434;2024-01-10T10:14:44;42.33;;;13.20;;
20478;SDS011;10398;52.490;13.434;2024-01-10T10:17:16;46.67;;;15.40;;
20478;SDS011;10398;52.490;13.434;2024-01-10T10:19:43;44.23;;;14.73;;
20478;SDS011;10398;52.490;13.434;2024-01-10T10:22:09;50.27;;;15.20;;
20478;SDS011;10398;52.490;13.434;2024-01-10T10:24:36;41.87;;;16.33;;
20478;SDS011;10398;52.490;13.434;2024-01-10T10:27:05;56.27;;;17.13;;
20478;SDS011;10398;52.490;13.434;2024-01-10T10:29:35;54.27;;;18.10;;
20478;SDS011;10398;52.490;13.434;2024-01-10T10:32:02;56.13;;;20.00;;
20478;SDS011;10398;52.490;13.434;2024-01-10T10:34:30;54.33;;;18.50;;
20478;SDS011;10398;52.490;13.434;2024-01-10T10:36:57;52.37;;;20.00;;
20478;SDS011;10398;52.490;13.434;2024-01-10T10:39:23;52.43;;;18.83;;
20478;SDS011;10398;52.490;13.434;2024-01-10T10:41:50;59.40;;;20.17;;
20478;SDS011;10398;52.490;13.434;2024-01-10T10:44:19;52.30;;;16.90;;
20478;SDS011;10398;52.490;13.434;2024-01-10T10:46:49;60.57;;;16.63;;
20478;SDS011;10398;52.490;13.434;2024-01-10T10:49:17;46.00;;;14.80;;
20478;SDS011;10398;52.490;13.434;2024-01-10T10:51:48;45.53;;;14.33;;
20478;SDS011;10398;52.490;13.434;2024-01-10T10:54:16;45.67;;;13.93;;
20478;SDS011;10398;52.490;13.434;2024-01-10T10:56:43;46.27;;;13.73;;
20478;SDS011;10398;52.490;13.434;2024-01-10T10:59:09;30.40;;;12.33;;
20478;SDS011;10398;52.490;13.434;2024-01-10T11:01:37;43.93;;;11.80;;
20478;SDS011;10398;52.490;13.434;2024-01-10T11:04:05;32.70;;;9.73;;
20478;SDS011;10398;52.490;13.434;2024-01-10T11:06:31;27.03;;;10.13;;
20478;SDS011;10398;52.490;13.434;2024-01-10T11:09:02;26.27;;;10.50;;
20478;SDS011;10398;52.490;13.434;2024-01-10T11:25:27;36.23;;;9.33;;
20478;SDS011;10398;52.490;13.434;2024-01-10T11:27:55;23.97;;;9.93;;
20478;SDS011;10398;52.490;13.434;2024-01-10T11:30:34;27.47;;;9.40;;
20478;SDS011;10398;52.490;13.434;2024-01-10T11:41:10;34.80;;;11.07;;
20478;SDS011;10398;52.490;13.434;2024-01-10T11:43:38;35.17;;;10.50;;
20478;SDS011;10398;52.490;13.434;2024-01-10T11:46:05;25.40;;;10.17;;
20478;SDS011;10398;52.490;13.434;2024-01-10T11:48:31;27.63;;;9.27;;
20478;SDS011;10398;52.490;13.434;2024-01-10T11:50:57;33.00;;;11.23;;
20478;SDS011;10398;52.490;13.434;2024-01-10T11:53:43;20.67;;;8.13;;
20478;SDS011;10398;52.490;13.434;2024-01-10T11:56:13;31.10;;;9.13;;
20478;SDS011;10398;52.490;13.434;2024-01-10T11:59:02;32.77;;;8.97;;
20478;SDS011;10398;52.490;13.434;2024-01-10T12:01:33;26.20;;;8.97;;
20478;SDS011;10398;52.490;13.434;2024-01-10T12:03:58;25.03;;;9.40;;
20478;SDS011;10398;52.490;13.434;2024-01-10T12:06:25;24.00;;;8.00;;
20478;SDS011;10398;52.490;13.434;2024-01-10T12:08:51;17.53;;;7.63;;
20478;SDS011;10398;52.490;13.434;2024-01-10T12:11:17;26.23;;;9.87;;
20478;SDS011;10398;52.490;13.434;2024-01-10T12:13:42;23.43;;;9.40;;
20478;SDS011;10398;52.490;13.434;2024-01-10T12:16:08;20.43;;;7.13;;
20478;SDS011;10398;52.490;13.434;2024-01-10T12:18:37;28.57;;;10.27;;
20478;SDS011;10398;52.490;13.434;2024-01-10T12:21:02;26.47;;;9.83;;
20478;SDS011;10398;52.490;13.434;2024-01-10T12:23:28;29.43;;;9.33;;
20478;SDS011;10398;52.490;13.434;2024-01-10T12:25:56;23.63;;;8.13;;
20478;SDS011;10398;52.490;13.434;2024-01-10T12:28:30;24.67;;;7.83;;
20478;SDS011;10398;52.490;13.434;2024-01-10T12:30:56;28.80;;;7.73;;
20478;SDS011;10398;52.490;13.434;2024-01-10T12:33:22;23.60;;;7.43;;
20478;SDS011;10398;52.490;13.434;2024-01-10T12:38:46;20.87;;;6.30;;
20478;SDS011;10398;52.490;13.434;2024-01-10T12:41:14;30.60;;;8.13;;
20478;SDS011;10398;52.490;13.434;2024-01-10T12:43:41;23.90;;;7.77;;
20478;SDS011;10398;52.490;13.434;2024-01-10T12:46:10;25.37;;;7.63;;
20478;SDS011;10398;52.490;13.434;2024-01-10T12:48:40;21.00;;;6.37;;
20478;SDS011;10398;52.490;13.434;2024-01-10T12:51:07;26.83;;;8.57;;
20478;SDS011;10398;52.490;13.434;2024-01-10T12:53:37;24.57;;;7.73;;
20478;SDS011;10398;52.490;13.434;2024-01-10T12:56:07;34.63;;;8.63;;
20478;SDS011;10398;52.490;13.434;2024-01-10T12:58:34;36.77;;;9.30;;
20478;SDS011;10398;52.490;13.434;2024-01-10T13:01:04;29.00;;;8.77;;
20478;SDS011;10398;52.490;13.434;2024-01-10T13:03:30;33.30;;;7.23;;
20478;SDS011;10398;52.490;13.434;2024-01-10T13:05:56;23.27;;;7.57;;
20478;SDS011;10398;52.490;13.434;2024-01-10T13:08:23;20.73;;;7.37;;
20478;SDS011;10398;52.490;13.434;2024-01-10T13:10:50;25.53;;;7.97;;
20478;SDS011;10398;52.490;13.434;2024-01-10T13:13:16;26.60;;;8.67;;
20478;SDS011;10398;52.490;13.434;2024-01-10T13:15:43;17.80;;;6.60;;
20478;SDS011;10398;52.490;13.434;2024-01-10T13:18:10;30.27;;;9.23;;
20478;SDS011;10398;52.490;13.434;2024-01-10T13:20:36;37.13;;;8.50;;
20478;SDS011;10398;52.490;13.434;2024-01-10T13:23:03;27.10;;;8.27;;
20478;SDS011;10398;52.490;13.434;2024-01-10T13:25:29;29.47;;;9.73;;
20478;SDS011;10398;52.490;13.434;2024-01-10T13:27:54;32.07;;;9.17;;
20478;SDS011;10398;52.490;13.434;2024-01-10T13:30:20;31.27;;;9.70;;
20478;SDS011;10398;52.490;13.434;2024-01-10T13:32:45;29.50;;;9.30;;
20478;SDS011;10398;52.490;13.434;2024-01-10T13:35:12;28.90;;;9.50;;
20478;SDS011;10398;52.490;13.434;2024-01-10T13:37:39;31.73;;;8.80;;
20478;SDS011;10398;52.490;13.434;2024-01-10T13:40:06;27.40;;;9.27;;
20478;SDS011;10398;52.490;13.434;2024-01-10T13:42:33;27.33;;;8.97;;
20478;SDS011;10398;52.490;13.434;2024-01-10T13:44:58;29.87;;;10.13;;
20478;SDS011;10398;52.490;13.434;2024-01-10T13:47:24;25.17;;;8.57;;
20478;SDS011;10398;52.490;13.434;2024-01-10T13:49:49;25.33;;;8.67;;
20478;SDS011;10398;52.490;13.434;2024-01-10T13:52:15;20.53;;;7.87;;
20478;SDS011;10398;52.490;13.434;2024-01-10T13:54:41;22.07;;;7.63;;
20478;SDS011;10398;52.490;13.434;2024-01-10T13:57:07;23.17;;;7.60;;
20478;SDS011;10398;52.490;13.434;2024-01-10T13:59:33;23.50;;;7.83;;
20478;SDS011;10398;52.490;13.434;2024-01-10T14:01:59;20.73;;;7.70;;
20478;SDS011;10398;52.490;13.434;2024-01-10T14:04:24;19.00;;;7.27;;
20478;SDS011;10398;52.490;13.434;2024-01-10T14:06:50;26.37;;;8.07;;
20478;SDS011;10398;52.490;13.434;2024-01-10T14:09:16;25.97;;;7.70;;
20478;SDS011;10398;52.490;13.434;2024-01-10T14:11:43;21.97;;;8.03;;
20478;SDS011;10398;52.490;13.434;2024-01-10T14:14:13;22.77;;;7.87;;
20478;SDS011;10398;52.490;13.434;2024-01-10T14:16:39;22.53;;;8.60;;
20478;SDS011;10398;52.490;13.434;2024-01-10T14:19:06;23.93;;;7.53;;
20478;SDS011;10398;52.490;13.434;2024-01-10T14:21:31;20.27;;;7.30;;
20478;SDS011;10398;52.490;13.434;2024-01-10T14:23:57;24.97;;;8.83;;
20478;SDS011;10398;52.490;13.434;2024-01-10T14:26:23;25.17;;;7.57;;
20478;SDS011;10398;52.490;13.434;2024-01-10T14:28:51;26.30;;;7.43;;
20478;SDS011;10398;52.490;13.434;2024-01-10T14:31:20;26.77;;;8.37;;
20478;SDS011;10398;52.490;13.434;2024-01-10T14:33:46;26.33;;;8.70;;
20478;SDS011;10398;52.490;13.434;2024-01-10T14:36:12;19.27;;;8.37;;